Terminal Aerodrome Forecast
Issued by NWS Shreveport, LA

Home | Current Version | Previous Version | Text Only | Print | Product List | Glossary On
Versions: 1 2 3 4 5 6 7 8 9 10 11 12 13 14 15 16 17 18 19
000
FTUS44 KSHV 221700 RRA
TAFELD
TAF
KELD 221756Z 2218/2318 15011KT P6SM FEW035 BKN250
     FM230000 13006KT P6SM BKN035
     FM230400 13006KT P6SM VCSH BKN025
     FM230600 13008KT 5SM SHRA BR OVC015
     FM230800 13008KT 3SM TSRA BR OVC008CB
     FM231400 16008KT 5SM BR VCSH OVC007=

USA.gov is the U.S. government's official web portal to all federal, state and local government web resources and services.